Stations météo

Publicité
Bramham, Grande-Bretagne (99077): Température de l'air & dewpoint: 31.03.2020 15:00:00 - 06.04.2020 15:00:00 (BST)Bramham, Grande-Bretagne (99077): Vitesse du vent & gusts: 31.03.2020 15:00:00 - 06.04.2020 15:00:00 (BST)Bramham, Grande-Bretagne (99077): Direction du vent: 31.03.2020 15:00:00 - 06.04.2020 15:00:00 (BST)Bramham, Grande-Bretagne (99077): Quantités de précipitations: 31.03.2020 15:00:00 - 06.04.2020 15:00:00 (BST)
Date & Time tt [°C] td [°C] ff [km/h] ff [knt] fx [km/h] fx [knt] dd rr [mm]
06.04.2020 15:00:00 13,9 4,6 24 13 - - WSW 0,0
06.04.2020 14:00:00 13,8 4,7 21 11 - - WSW 0,0
06.04.2020 13:00:00 12,8 5,5 22 12 - - SW 0,0
06.04.2020 12:00:00 12,7 6,1 18 10 48 26 WSW 0,0
06.04.2020 11:00:00 12,9 5,2 28 15 46 25 SSW 0,0
06.04.2020 10:00:00 12,5 5,9 31 17 50 27 SW 0,0
06.04.2020 09:00:00 11,2 6,7 18 10 - - SW 0,0
06.04.2020 08:00:00 10,5 7,4 11 6 - - SSW 0,0
06.04.2020 07:00:00 10,4 7,5 22 12 - - SW 0,2
06.04.2020 06:00:00 10,6 8,6 22 12 46 25 SSW 1,0
06.04.2020 05:00:00 12,9 8,2 16 9 - - S 0,0
06.04.2020 04:00:00 13,4 7,5 28 15 - - SSE 0,0
06.04.2020 03:00:00 13,6 6,4 28 15 - - SSE 0,0
06.04.2020 02:00:00 12,0 4,8 21 11 - - SE 0,0
06.04.2020 01:00:00 12,2 4,0 22 12 - - SE 0,0
06.04.2020 00:00:00 13,0 3,6 29 16 - - SE 0,0
05.04.2020 23:00:00 13,4 4,2 28 15 - - SE 0,0
05.04.2020 22:00:00 13,7 5,5 26 14 - - SE 0,0
05.04.2020 21:00:00 14,5 4,9 28 15 - - SE 0,0
05.04.2020 20:00:00 16,3 3,5 26 14 - - SE 0,0
05.04.2020 19:00:00 16,6 4,7 21 11 - - SE 0,0
05.04.2020 18:00:00 17,3 4,4 29 16 46 25 SE 0,0
05.04.2020 17:00:00 17,9 3,6 31 17 50 27 SE 0,0
05.04.2020 16:00:00 18,1 3,5 39 21 50 27 SE 0,0
05.04.2020 15:00:00 17,9 4,2 34 18 48 26 SE 0,0
05.04.2020 14:00:00 16,9 3,8 31 17 46 25 SE 0,0
05.04.2020 13:00:00 15,3 4,0 34 18 46 25 SE 0,0
05.04.2020 12:00:00 15,1 4,7 34 18 50 27 SE 0,0
05.04.2020 11:00:00 13,3 5,0 28 15 - - SE 0,0
05.04.2020 10:00:00 10,2 5,2 21 11 - - SE 0,0
05.04.2020 09:00:00 7,2 3,8 13 7 - - ESE 0,0
05.04.2020 08:00:00 5,5 3,4 13 7 - - ESE 0,0
05.04.2020 07:00:00 2,2 1,1 9 5 - - SE 0,0
05.04.2020 06:00:00 3,3 2,4 15 8 - - SE 0,0
05.04.2020 05:00:00 3,3 1,9 15 8 - - SSE 0,0
05.04.2020 04:00:00 3,7 1,8 9 5 - - SSE 0,0
05.04.2020 03:00:00 4,4 2,3 13 7 - - SE 0,0
05.04.2020 02:00:00 5,3 2,4 8 4 - - S 0,0
05.04.2020 01:00:00 6,7 3,6 21 11 - - SE 0,0
05.04.2020 00:00:00 7,2 4,0 16 9 - - SE 0,0
04.04.2020 23:00:00 6,6 4,1 15 8 - - SE 0,0
04.04.2020 22:00:00 7,7 4,8 15 8 - - SE 0,0
04.04.2020 21:00:00 8,0 4,8 11 6 - - SE 0,0
04.04.2020 20:00:00 10,2 5,3 13 7 - - SE 0,0
04.04.2020 19:00:00 12,2 5,4 16 9 - - SSE 0,0
04.04.2020 18:00:00 12,6 5,0 18 10 - - S 0,0
04.04.2020 17:00:00 12,6 4,7 21 11 - - S 0,0
04.04.2020 16:00:00 13,0 3,6 22 12 - - SSW 0,0
04.04.2020 15:00:00 12,5 3,0 18 10 - - SSW 0,0
04.04.2020 14:00:00 12,0 3,4 18 10 - - S 0,0
04.04.2020 13:00:00 10,6 4,3 18 10 - - S 0,0
04.04.2020 12:00:00 10,3 5,2 15 8 - - S 0,0
04.04.2020 11:00:00 8,8 4,4 18 10 - - SSE 0,0
04.04.2020 10:00:00 9,6 4,7 13 7 - - SSW 0,0
04.04.2020 09:00:00 7,9 4,5 11 6 - - S 0,0
04.04.2020 08:00:00 6,8 4,2 11 6 - - S 0,0
04.04.2020 07:00:00 5,0 3,2 13 7 - - SSW 0,0
04.04.2020 06:00:00 5,2 3,4 2 1 - - W 0,0
04.04.2020 05:00:00 5,9 3,5 9 5 - - SSW 0,0
04.04.2020 04:00:00 6,6 3,6 4 2 - - SW 0,0
04.04.2020 03:00:00 6,1 3,5 5 3 - - SSW 0,0
04.04.2020 02:00:00 5,4 2,8 8 4 - - SE 0,0
04.04.2020 01:00:00 5,4 2,6 8 4 - - S 0,0
04.04.2020 00:00:00 5,8 2,6 9 5 - - S 0,0
03.04.2020 23:00:00 5,2 2,2 4 2 - - S 0,0
03.04.2020 22:00:00 5,7 2,2 5 3 - - SSW 0,0
03.04.2020 21:00:00 6,9 2,0 8 4 - - S 0,0
03.04.2020 20:00:00 7,7 1,7 2 1 - - W 0,0
03.04.2020 19:00:00 9,3 2,5 5 3 - - W 0,0
03.04.2020 18:00:00 9,8 2,1 24 13 - - WSW 0,0
03.04.2020 17:00:00 10,5 1,8 28 15 - - WSW 0,0
03.04.2020 16:00:00 10,0 2,0 21 11 - - W 0,0
03.04.2020 15:00:00 9,2 2,4 22 12 - - W 0,0
03.04.2020 14:00:00 9,5 2,9 26 14 - - W 0,0
03.04.2020 13:00:00 8,0 1,9 21 11 - - WSW 0,0
03.04.2020 12:00:00 8,1 2,4 15 8 - - W 0,0
03.04.2020 11:00:00 7,4 2,7 13 7 - - WSW 0,0
03.04.2020 10:00:00 6,3 2,7 13 7 - - W 0,0
03.04.2020 09:00:00 5,6 1,8 15 8 - - WSW 0,0
03.04.2020 08:00:00 5,2 1,9 13 7 - - WSW 0,0
03.04.2020 07:00:00 4,8 1,6 11 6 - - WSW 0,0
03.04.2020 06:00:00 4,7 1,4 11 6 - - W 0,0
03.04.2020 05:00:00 4,7 1,3 13 7 - - W 0,0
03.04.2020 04:00:00 4,6 1,2 13 7 - - W 0,0
03.04.2020 03:00:00 4,7 1,7 13 7 - - W 0,0
03.04.2020 02:00:00 4,9 1,6 15 8 - - W 0,0
03.04.2020 01:00:00 5,1 1,5 22 12 - - W 0,0
03.04.2020 00:00:00 5,2 1,3 16 9 - - W 0,0
02.04.2020 23:00:00 5,9 1,7 21 11 - - W 0,0
02.04.2020 22:00:00 6,4 1,1 13 7 - - W 0,0
02.04.2020 21:00:00 7,5 1,7 18 10 - - W 0,0
02.04.2020 20:00:00 8,4 0,8 22 12 46 25 W 0,0
02.04.2020 19:00:00 9,8 2,2 34 18 54 29 W 0,0
02.04.2020 18:00:00 10,6 2,7 31 17 65 35 W 0,0
02.04.2020 17:00:00 11,5 3,7 35 19 61 33 W 0,0
02.04.2020 16:00:00 11,3 3,9 34 18 67 36 W 0,0
02.04.2020 15:00:00 11,3 2,7 28 15 70 38 W 0,0
02.04.2020 14:00:00 12,3 5,0 39 21 67 36 W 0,0
02.04.2020 13:00:00 11,2 6,7 44 24 68 37 W 0,0
02.04.2020 12:00:00 10,7 6,7 29 16 50 27 WSW 0,0
02.04.2020 11:00:00 9,5 6,1 34 18 54 29 WSW 0,0
02.04.2020 10:00:00 9,4 5,6 31 17 50 27 WSW 0,0
02.04.2020 09:00:00 8,7 4,8 28 15 - - WSW 0,0
02.04.2020 08:00:00 7,9 3,6 21 11 - - WSW 0,0
02.04.2020 07:00:00 7,2 3,3 18 10 - - WSW 0,0
02.04.2020 06:00:00 5,8 2,2 8 4 - - WSW 0,0
02.04.2020 05:00:00 6,8 4,1 16 9 - - WSW 0,0
02.04.2020 04:00:00 6,9 4,8 16 9 - - WSW 0,0
02.04.2020 03:00:00 7,4 4,9 18 10 - - WSW 0,0
02.04.2020 02:00:00 6,9 5,0 18 10 - - WSW 0,0
02.04.2020 01:00:00 5,0 3,1 8 4 - - SW 0,0
02.04.2020 00:00:00 6,2 3,8 13 7 - - W 0,0
01.04.2020 23:00:00 6,8 3,6 11 6 - - WSW 0,0
01.04.2020 22:00:00 7,2 3,6 13 7 - - WSW 0,0
01.04.2020 21:00:00 7,3 3,5 15 8 - - SW 0,0
01.04.2020 20:00:00 7,3 3,0 16 9 - - WSW 0,0
01.04.2020 19:00:00 8,3 3,3 18 10 - - W 0,0
01.04.2020 18:00:00 8,4 3,5 21 11 - - W 0,0
01.04.2020 17:00:00 8,9 2,4 26 14 - - W 0,0
01.04.2020 16:00:00 9,3 1,3 18 10 - - W 0,0
01.04.2020 15:00:00 9,6 1,4 21 11 - - WSW 0,0
01.04.2020 14:00:00 9,5 0,2 13 7 - - W 0,0
01.04.2020 13:00:00 8,8 -0,5 22 12 - - W 0,0
01.04.2020 12:00:00 8,2 -0,5 22 12 - - WNW 0,0
01.04.2020 11:00:00 7,9 3,0 15 8 - - W 0,0
01.04.2020 10:00:00 7,2 1,9 16 9 - - W 0,0
01.04.2020 09:00:00 6,6 2,1 15 8 - - WSW 0,0
01.04.2020 08:00:00 6,0 2,9 13 7 - - WSW 0,0
01.04.2020 07:00:00 5,8 3,0 11 6 - - WSW 0,0
01.04.2020 06:00:00 5,7 3,2 9 5 - - WSW 0,0
01.04.2020 05:00:00 5,8 2,8 9 5 - - W 0,0
01.04.2020 04:00:00 5,9 3,2 9 5 - - WSW 0,0
01.04.2020 03:00:00 6,2 3,2 9 5 - - WSW 0,0
01.04.2020 02:00:00 6,1 3,1 8 4 - - SW 0,0
01.04.2020 01:00:00 6,2 2,9 9 5 - - SSW 0,0
01.04.2020 00:00:00 6,2 3,0 8 4 - - S 0,0
31.03.2020 23:00:00 6,4 2,9 9 5 - - SSE 0,0
31.03.2020 22:00:00 6,4 3,5 8 4 - - ESE 0,0
31.03.2020 21:00:00 6,9 3,7 4 2 - - SE 0,0
31.03.2020 20:00:00 7,2 3,1 0 0 - - N 0,0
31.03.2020 19:00:00 7,7 3,4 2 1 - - SE 0,0
31.03.2020 18:00:00 8,0 2,9 4 2 - - E 0,0
31.03.2020 17:00:00 8,2 2,8 2 1 - - NNE 0,0
31.03.2020 16:00:00 8,1 2,8 5 3 - - NW 0,0
31.03.2020 15:00:00 8,2 2,8 5 3 - - NW 0,0

tt = Température de l'air
td = dewpoint
ff = Vitesse du vent
fx = gusts
dd = Direction du vent
rr = Quantités de précipitations

stations d'obs. à proximité